createdAt,value
2023-03-17T05:21:19.201Z,0.05
2023-03-17T05:24:22.148Z,0.05
2023-03-17T05:27:24.770Z,-0.46
2023-03-17T05:30:31.571Z,-0.43
2023-03-17T05:33:34.906Z,0.07
2023-03-17T05:36:37.650Z,-0.09
2023-03-17T05:39:40.476Z,-0.10
2023-03-17T05:42:43.095Z,0.27
2023-03-17T05:45:47.417Z,0.52
2023-03-17T05:48:50.027Z,0.70
2023-03-17T05:51:52.594Z,0.77
2023-03-17T05:54:55.360Z,0.86
2023-03-17T05:57:58.112Z,1.01
2023-03-17T06:01:01.239Z,1.23
2023-03-17T06:04:05.109Z,1.61
2023-03-17T06:07:09.592Z,1.84
2023-03-17T06:10:12.419Z,2.14
2023-03-17T06:13:15.544Z,2.18
2023-03-17T06:16:18.400Z,2.58
2023-03-17T06:19:21.157Z,2.92
2023-03-17T06:22:23.660Z,3.04
2023-03-17T06:25:27.368Z,3.13
2023-03-17T06:28:29.956Z,3.46
2023-03-17T06:31:32.495Z,3.66
2023-03-17T06:34:34.979Z,3.90
2023-03-17T06:37:37.544Z,4.29
2023-03-17T06:40:40.076Z,4.43
2023-03-17T06:43:42.636Z,4.57
2023-03-17T06:46:45.284Z,4.80
2023-03-17T06:49:48.066Z,4.98
2023-03-17T06:52:51.693Z,5.30
2023-03-17T06:55:54.200Z,5.56
2023-03-17T06:58:56.863Z,5.60
2023-03-17T07:02:00.530Z,5.76
2023-03-17T07:05:04.661Z,6.04
2023-03-17T07:08:07.475Z,6.13
2023-03-17T07:11:10.045Z,6.27
2023-03-17T07:14:13.956Z,6.53
2023-03-17T07:17:16.564Z,6.37
2023-03-17T07:20:19.221Z,6.40
2023-03-17T07:23:23.017Z,6.49
2023-03-17T07:26:25.707Z,6.65
2023-03-17T07:29:29.375Z,6.78
2023-03-17T07:32:33.545Z,6.89
2023-03-17T07:35:36.345Z,6.89
2023-03-17T07:38:38.975Z,6.87
2023-03-17T07:41:41.490Z,7.06
2023-03-17T07:44:44.278Z,7.05
2023-03-17T07:47:46.970Z,7.06
2023-03-17T07:50:49.510Z,7.22
2023-03-17T07:53:52.079Z,7.22
2023-03-17T07:56:54.994Z,7.40
2023-03-17T07:59:57.918Z,7.41
2023-03-17T08:03:09.841Z,7.53
2023-03-17T08:06:13.384Z,7.58
2023-03-17T08:09:16.018Z,7.46
2023-03-17T08:12:18.854Z,7.68
2023-03-17T08:15:22.164Z,7.76
2023-03-17T08:18:24.758Z,7.69
2023-03-17T08:21:27.533Z,7.82
2023-03-17T08:24:30.312Z,8.11
2023-03-17T08:27:34.004Z,8.13
2023-03-17T08:30:38.805Z,8.21
2023-03-17T08:33:42.596Z,8.32
2023-03-17T08:36:45.257Z,8.52
2023-03-17T08:39:47.980Z,8.79
2023-03-17T08:42:50.847Z,8.64
2023-03-17T08:45:54.087Z,8.20
2023-03-17T08:48:57.150Z,8.32
2023-03-17T08:51:59.786Z,8.77
2023-03-17T08:55:02.691Z,8.81
2023-03-17T08:58:05.559Z,8.87
2023-03-17T09:01:10.183Z,8.93
2023-03-17T09:04:12.880Z,8.63
2023-03-17T09:07:15.380Z,8.48
2023-03-17T09:10:22.725Z,8.69
2023-03-17T09:13:25.807Z,8.68
2023-03-17T09:16:28.913Z,8.47
2023-03-17T09:19:32.536Z,8.46
2023-03-17T09:22:35.078Z,8.60
2023-03-17T09:25:38.533Z,8.83
2023-03-17T09:28:41.061Z,9.15
2023-03-17T09:31:43.942Z,9.02
2023-03-17T09:34:46.570Z,8.96
2023-03-17T09:37:49.193Z,9.28
2023-03-17T09:41:05.328Z,9.30
2023-03-17T09:44:19.566Z,9.25
2023-03-17T09:47:31.203Z,9.41
2023-03-17T09:50:42.955Z,9.47
2023-03-17T09:54:00.600Z,9.28
2023-03-17T09:57:27.511Z,9.33
2023-03-17T10:00:31.414Z,9.38
2023-03-17T10:03:34.292Z,9.36
2023-03-17T10:06:43.867Z,9.51
2023-03-17T10:09:53.732Z,9.67
2023-03-17T10:13:18.029Z,9.52
2023-03-17T10:17:07.123Z,9.64
2023-03-17T10:20:16.066Z,9.80
2023-03-17T10:23:25.404Z,9.63
2023-03-17T10:26:42.604Z,9.64
2023-03-17T10:29:54.206Z,9.67
2023-03-17T10:32:57.596Z,9.63
2023-03-17T10:36:09.248Z,9.60
2023-03-17T10:39:14.615Z,9.50
2023-03-17T10:42:17.356Z,9.89
2023-03-17T10:45:29.635Z,9.48
2023-03-17T10:48:36.545Z,9.48
2023-03-17T10:51:40.689Z,9.69
2023-03-17T10:54:47.280Z,10.10
2023-03-17T10:57:52.365Z,10.33
2023-03-17T11:01:07.882Z,9.85
2023-03-17T11:04:21.875Z,9.92
2023-03-17T11:07:34.745Z,9.75
2023-03-17T11:10:39.529Z,10.07
2023-03-17T11:13:42.372Z,10.03
2023-03-17T11:16:59.371Z,9.99
2023-03-17T11:20:31.821Z,9.91
2023-03-17T11:23:47.891Z,10.07
2023-03-17T11:26:58.828Z,10.31
2023-03-17T11:30:11.902Z,10.18
2023-03-17T11:33:35.673Z,10.29
2023-03-17T11:36:46.387Z,10.18
2023-03-17T11:40:12.669Z,10.20
2023-03-17T11:43:15.138Z,10.18
2023-03-17T11:46:31.151Z,10.14
2023-03-17T11:49:37.973Z,10.10
2023-03-17T11:53:05.606Z,10.36
2023-03-17T11:56:14.067Z,9.96
2023-03-17T11:59:39.072Z,10.09
2023-03-17T12:02:58.154Z,10.27
2023-03-17T12:06:11.014Z,10.30
2023-03-17T12:10:01.378Z,10.40
2023-03-17T12:13:24.318Z,10.72
2023-03-17T12:16:29.771Z,10.45
2023-03-17T12:19:46.049Z,10.24
2023-03-17T12:22:56.684Z,10.17
2023-03-17T12:26:08.899Z,10.22
2023-03-17T12:29:14.482Z,10.66
2023-03-17T12:32:24.970Z,10.53
2023-03-17T12:35:28.209Z,10.38
2023-03-17T12:38:38.652Z,10.51
2023-03-17T12:42:02.538Z,10.39
2023-03-17T12:45:26.495Z,10.45
2023-03-17T12:48:51.318Z,10.34
2023-03-17T12:52:24.639Z,10.28
2023-03-17T12:55:27.515Z,10.81
2023-03-17T12:58:33.073Z,10.53
2023-03-17T13:01:39.308Z,10.34
2023-03-17T13:04:49.123Z,10.42
2023-03-17T13:07:54.670Z,10.18
2023-03-17T13:11:21.328Z,10.39
2023-03-17T13:14:29.637Z,10.39
2023-03-17T13:17:36.244Z,10.51
2023-03-17T13:21:02.664Z,10.65
2023-03-17T13:24:18.717Z,10.58
2023-03-17T13:27:31.054Z,10.68
2023-03-17T13:30:36.632Z,10.72
2023-03-17T13:33:44.810Z,10.98
2023-03-17T13:37:25.944Z,10.76
2023-03-17T13:40:52.642Z,10.98
2023-03-17T13:44:10.584Z,10.96
2023-03-17T13:47:25.484Z,11.02
2023-03-17T13:50:31.580Z,11.30
2023-03-17T13:53:56.600Z,11.27
2023-03-17T13:57:19.813Z,11.11
2023-03-17T14:00:24.536Z,11.15
2023-03-17T14:03:56.756Z,10.81
2023-03-17T14:07:00.729Z,10.71
2023-03-17T14:10:05.571Z,10.96
2023-03-17T14:13:27.985Z,11.15
2023-03-17T14:16:32.485Z,11.10
2023-03-17T14:19:35.151Z,11.06
2023-03-17T14:22:44.840Z,10.96
2023-03-17T14:25:47.862Z,11.11
2023-03-17T14:28:50.554Z,10.79
2023-03-17T14:32:07.155Z,10.72
2023-03-17T14:35:13.231Z,10.95
2023-03-17T14:38:20.805Z,11.29
2023-03-17T14:41:24.554Z,10.95
2023-03-17T14:44:27.238Z,10.83
2023-03-17T14:47:29.862Z,10.77
2023-03-17T14:50:32.539Z,10.80
2023-03-17T14:53:36.289Z,10.97
2023-03-17T14:56:43.022Z,10.98
2023-03-17T14:59:57.485Z,11.02
2023-03-17T15:03:03.141Z,10.83
2023-03-17T15:06:23.235Z,10.79
2023-03-17T15:09:28.618Z,11.16
2023-03-17T15:12:31.097Z,10.87
2023-03-17T15:15:37.987Z,11.09
2023-03-17T15:18:40.700Z,11.00
2023-03-17T15:21:43.414Z,11.01
2023-03-17T15:24:46.265Z,11.01
2023-03-17T15:27:48.996Z,10.91
2023-03-17T15:30:52.867Z,10.92
2023-03-17T15:33:55.757Z,11.00
2023-03-17T15:36:58.388Z,10.71
2023-03-17T15:40:01.565Z,10.80
2023-03-17T15:43:04.095Z,10.73
2023-03-17T15:46:16.409Z,10.66
2023-03-17T15:49:19.108Z,10.76
2023-03-17T15:52:25.245Z,10.71
2023-03-17T15:55:33.080Z,10.67
2023-03-17T15:58:35.658Z,10.64
2023-03-17T16:01:38.409Z,10.68
2023-03-17T16:04:41.141Z,10.65
2023-03-17T16:07:44.092Z,10.51
2023-03-17T16:10:47.105Z,10.43
2023-03-17T16:13:49.656Z,10.26
2023-03-17T16:16:52.211Z,10.20
